sensor_id;sensor_type;location;lat;lon;timestamp;pressure;altitude;pressure_sealevel;temperature;humidity
80321;BME280;69633;47.066;15.450;2024-02-26T00:02:25;96567.28;;;4.74;76.88
80321;BME280;69633;47.066;15.450;2024-02-26T00:04:52;96573.78;;;4.68;76.85
80321;BME280;69633;47.066;15.450;2024-02-26T00:07:18;96565.56;;;4.69;77.15
80321;BME280;69633;47.066;15.450;2024-02-26T00:09:43;96560.66;;;4.68;77.48
80321;BME280;69633;47.066;15.450;2024-02-26T00:12:09;96554.91;;;4.66;77.35
80321;BME280;69633;47.066;15.450;2024-02-26T00:14:34;96555.56;;;4.63;77.65
80321;BME280;69633;47.066;15.450;2024-02-26T00:17:01;96550.31;;;4.63;78.05
80321;BME280;69633;47.066;15.450;2024-02-26T00:19:29;96550.13;;;4.68;77.61
80321;BME280;69633;47.066;15.450;2024-02-26T00:21:54;96541.94;;;4.69;77.68
80321;BME280;69633;47.066;15.450;2024-02-26T00:24:20;96538.22;;;4.70;77.62
80321;BME280;69633;47.066;15.450;2024-02-26T00:26:48;96544.25;;;4.71;77.79
80321;BME280;69633;47.066;15.450;2024-02-26T00:29:18;96539.63;;;4.68;78.00
80321;BME280;69633;47.066;15.450;2024-02-26T00:31:44;96535.75;;;4.65;77.98
80321;BME280;69633;47.066;15.450;2024-02-26T00:34:10;96540.09;;;4.61;78.32
80321;BME280;69633;47.066;15.450;2024-02-26T00:36:35;96537.47;;;4.61;78.02
80321;BME280;69633;47.066;15.450;2024-02-26T00:39:01;96537.97;;;4.55;77.92
80321;BME280;69633;47.066;15.450;2024-02-26T00:41:29;96528.53;;;4.54;78.25
80321;BME280;69633;47.066;15.450;2024-02-26T00:43:54;96535.03;;;4.56;77.63
80321;BME280;69633;47.066;15.450;2024-02-26T00:46:21;96534.09;;;4.61;77.22
80321;BME280;69633;47.066;15.450;2024-02-26T00:48:46;96528.38;;;4.59;77.66
80321;BME280;69633;47.066;15.450;2024-02-26T00:51:12;96525.75;;;4.59;77.60
80321;BME280;69633;47.066;15.450;2024-02-26T00:53:38;96527.00;;;4.53;78.24
80321;BME280;69633;47.066;15.450;2024-02-26T00:56:03;96532.88;;;4.50;78.19
80321;BME280;69633;47.066;15.450;2024-02-26T00:58:29;96536.59;;;4.49;78.53
80321;BME280;69633;47.066;15.450;2024-02-26T01:00:54;96534.13;;;4.44;77.99
80321;BME280;69633;47.066;15.450;2024-02-26T01:03:20;96531.22;;;4.36;78.08
80321;BME280;69633;47.066;15.450;2024-02-26T01:05:45;96530.75;;;4.34;78.04
80321;BME280;69633;47.066;15.450;2024-02-26T01:08:11;96523.97;;;4.33;77.87
80321;BME280;69633;47.066;15.450;2024-02-26T01:10:36;96517.63;;;4.26;78.41
80321;BME280;69633;47.066;15.450;2024-02-26T01:13:03;96521.97;;;4.22;78.56
80321;BME280;69633;47.066;15.450;2024-02-26T01:15:30;96517.78;;;4.21;78.81
80321;BME280;69633;47.066;15.450;2024-02-26T01:17:55;96525.66;;;4.29;78.47
80321;BME280;69633;47.066;15.450;2024-02-26T01:20:22;96510.97;;;4.28;78.27
80321;BME280;69633;47.066;15.450;2024-02-26T01:22:47;96513.59;;;4.28;78.34
80321;BME280;69633;47.066;15.450;2024-02-26T01:25:14;96505.44;;;4.30;78.37
80321;BME280;69633;47.066;15.450;2024-02-26T01:27:41;96506.81;;;4.27;78.60
80321;BME280;69633;47.066;15.450;2024-02-26T01:30:09;96512.38;;;4.26;78.83
80321;BME280;69633;47.066;15.450;2024-02-26T01:32:35;96508.84;;;4.30;78.59
80321;BME280;69633;47.066;15.450;2024-02-26T01:35:02;96504.03;;;4.32;78.59
80321;BME280;69633;47.066;15.450;2024-02-26T01:37:35;96510.50;;;4.35;78.80
80321;BME280;69633;47.066;15.450;2024-02-26T01:40:01;96494.75;;;4.35;78.48
80321;BME280;69633;47.066;15.450;2024-02-26T01:42:29;96500.75;;;4.35;78.60
80321;BME280;69633;47.066;15.450;2024-02-26T01:44:56;96496.31;;;4.27;78.31
80321;BME280;69633;47.066;15.450;2024-02-26T01:47:22;96491.22;;;4.31;78.52
80321;BME280;69633;47.066;15.450;2024-02-26T01:49:49;96488.59;;;4.31;78.31
80321;BME280;69633;47.066;15.450;2024-02-26T01:52:14;96491.53;;;4.29;77.94
80321;BME280;69633;47.066;15.450;2024-02-26T01:54:42;96486.44;;;4.24;78.07
80321;BME280;69633;47.066;15.450;2024-02-26T01:57:10;96484.44;;;4.21;78.20
80321;BME280;69633;47.066;15.450;2024-02-26T01:59:36;96482.28;;;4.23;77.88
80321;BME280;69633;47.066;15.450;2024-02-26T02:02:06;96479.97;;;4.22;78.00
80321;BME280;69633;47.066;15.450;2024-02-26T02:04:34;96480.59;;;4.19;78.07
80321;BME280;69633;47.066;15.450;2024-02-26T02:07:00;96476.72;;;4.16;78.13
80321;BME280;69633;47.066;15.450;2024-02-26T02:09:27;96473.19;;;4.12;78.46
80321;BME280;69633;47.066;15.450;2024-02-26T02:11:53;96470.88;;;4.02;78.15
80321;BME280;69633;47.066;15.450;2024-02-26T02:14:19;96475.84;;;3.95;78.83
80321;BME280;69633;47.066;15.450;2024-02-26T02:16:46;96474.78;;;3.87;78.62
80321;BME280;69633;47.066;15.450;2024-02-26T02:19:13;96480.66;;;3.84;79.14
80321;BME280;69633;47.066;15.450;2024-02-26T02:21:39;96468.94;;;3.82;79.35
80321;BME280;69633;47.066;15.450;2024-02-26T02:24:04;96474.78;;;3.79;79.43
80321;BME280;69633;47.066;15.450;2024-02-26T02:26:30;96473.88;;;3.75;79.28
80321;BME280;69633;47.066;15.450;2024-02-26T02:28:56;96466.44;;;3.77;79.36
80321;BME280;69633;47.066;15.450;2024-02-26T02:31:21;96468.78;;;3.78;79.29
80321;BME280;69633;47.066;15.450;2024-02-26T02:33:49;96464.13;;;3.75;79.56
80321;BME280;69633;47.066;15.450;2024-02-26T02:36:14;96468.94;;;3.73;79.44
80321;BME280;69633;47.066;15.450;2024-02-26T02:38:48;96467.84;;;3.66;79.40
80321;BME280;69633;47.066;15.450;2024-02-26T02:41:18;96473.09;;;3.57;80.13
80321;BME280;69633;47.066;15.450;2024-02-26T02:43:43;96471.88;;;3.55;80.76
80321;BME280;69633;47.066;15.450;2024-02-26T02:46:09;96473.56;;;3.59;80.94
80321;BME280;69633;47.066;15.450;2024-02-26T02:48:37;96472.31;;;3.65;80.32
80321;BME280;69633;47.066;15.450;2024-02-26T02:51:04;96467.84;;;3.66;80.46
80321;BME280;69633;47.066;15.450;2024-02-26T02:53:31;96468.78;;;3.70;80.65
80321;BME280;69633;47.066;15.450;2024-02-26T02:55:56;96468.16;;;3.73;80.42
80321;BME280;69633;47.066;15.450;2024-02-26T02:58:23;96474.81;;;3.70;80.38
80321;BME280;69633;47.066;15.450;2024-02-26T03:00:48;96462.47;;;3.62;79.88
80321;BME280;69633;47.066;15.450;2024-02-26T03:03:14;96459.06;;;3.53;80.42
80321;BME280;69633;47.066;15.450;2024-02-26T03:05:39;96464.44;;;3.57;79.86
80321;BME280;69633;47.066;15.450;2024-02-26T03:08:06;96458.28;;;3.53;80.03
80321;BME280;69633;47.066;15.450;2024-02-26T03:10:31;96453.81;;;3.53;80.24
80321;BME280;69633;47.066;15.450;2024-02-26T03:12:58;96454.13;;;3.52;80.42
80321;BME280;69633;47.066;15.450;2024-02-26T03:15:25;96447.63;;;3.49;80.74
80321;BME280;69633;47.066;15.450;2024-02-26T03:17:52;96445.63;;;3.46;80.50
80321;BME280;69633;47.066;15.450;2024-02-26T03:20:20;96445.16;;;3.53;80.38
80321;BME280;69633;47.066;15.450;2024-02-26T03:22:47;96443.78;;;3.47;80.18
80321;BME280;69633;47.066;15.450;2024-02-26T03:25:14;96441.31;;;3.50;80.05
80321;BME280;69633;47.066;15.450;2024-02-26T03:27:40;96442.41;;;3.58;79.86
80321;BME280;69633;47.066;15.450;2024-02-26T03:30:08;96431.91;;;3.58;79.60
80321;BME280;69633;47.066;15.450;2024-02-26T03:32:35;96433.91;;;3.61;79.92
80321;BME280;69633;47.066;15.450;2024-02-26T03:35:02;96433.75;;;3.57;79.45
80321;BME280;69633;47.066;15.450;2024-02-26T03:37:28;96424.19;;;3.53;79.53
80321;BME280;69633;47.066;15.450;2024-02-26T03:39:54;96424.34;;;3.48;79.72
80321;BME280;69633;47.066;15.450;2024-02-26T03:42:20;96420.66;;;3.49;79.75
80321;BME280;69633;47.066;15.450;2024-02-26T03:44:47;96425.91;;;3.40;79.78
80321;BME280;69633;47.066;15.450;2024-02-26T03:47:13;96429.44;;;3.35;80.17
80321;BME280;69633;47.066;15.450;2024-02-26T03:49:40;96427.91;;;3.34;80.24
80321;BME280;69633;47.066;15.450;2024-02-26T03:52:06;96431.00;;;3.28;80.46
80321;BME280;69633;47.066;15.450;2024-02-26T03:54:33;96430.84;;;3.24;80.53
80321;BME280;69633;47.066;15.450;2024-02-26T03:57:00;96425.28;;;3.26;80.71
80321;BME280;69633;47.066;15.450;2024-02-26T03:59:27;96434.53;;;3.23;80.84
80321;BME280;69633;47.066;15.450;2024-02-26T04:01:53;96432.38;;;3.25;80.60
80321;BME280;69633;47.066;15.450;2024-02-26T04:04:20;96423.09;;;3.19;80.76
80321;BME280;69633;47.066;15.450;2024-02-26T04:06:46;96433.75;;;3.23;80.99
80321;BME280;69633;47.066;15.450;2024-02-26T04:09:13;96430.22;;;3.27;81.25
80321;BME280;69633;47.066;15.450;2024-02-26T04:11:41;96432.69;;;3.32;80.46
80321;BME280;69633;47.066;15.450;2024-02-26T04:14:10;96425.28;;;3.34;80.81
80321;BME280;69633;47.066;15.450;2024-02-26T04:16:38;96431.28;;;3.35;80.70
80321;BME280;69633;47.066;15.450;2024-02-26T04:19:06;96422.97;;;3.33;81.19
80321;BME280;69633;47.066;15.450;2024-02-26T04:21:34;96428.03;;;3.38;81.23
80321;BME280;69633;47.066;15.450;2024-02-26T04:24:00;96437.16;;;3.40;80.60
80321;BME280;69633;47.066;15.450;2024-02-26T04:26:29;96433.91;;;3.44;80.60
80321;BME280;69633;47.066;15.450;2024-02-26T04:28:57;96431.91;;;3.49;80.71
80321;BME280;69633;47.066;15.450;2024-02-26T04:31:22;96432.66;;;3.50;80.48
80321;BME280;69633;47.066;15.450;2024-02-26T04:33:47;96419.88;;;3.48;80.24
80321;BME280;69633;47.066;15.450;2024-02-26T04:36:16;96417.56;;;3.47;80.63
80321;BME280;69633;47.066;15.450;2024-02-26T04:38:43;96421.88;;;3.42;80.74
80321;BME280;69633;47.066;15.450;2024-02-26T04:41:15;96423.75;;;3.33;80.89
80321;BME280;69633;47.066;15.450;2024-02-26T04:43:42;96424.34;;;3.30;80.73
80321;BME280;69633;47.066;15.450;2024-02-26T04:46:08;96420.50;;;3.28;81.11
80321;BME280;69633;47.066;15.450;2024-02-26T04:48:36;96421.91;;;3.25;80.69
80321;BME280;69633;47.066;15.450;2024-02-26T04:51:03;96427.91;;;3.26;80.72
80321;BME280;69633;47.066;15.450;2024-02-26T04:53:30;96431.91;;;3.23;80.50
80321;BME280;69633;47.066;15.450;2024-02-26T04:55:58;96425.88;;;3.23;80.68
80321;BME280;69633;47.066;15.450;2024-02-26T04:58:25;96426.22;;;3.21;80.63
80321;BME280;69633;47.066;15.450;2024-02-26T05:00:51;96431.47;;;3.21;80.31
80321;BME280;69633;47.066;15.450;2024-02-26T05:03:18;96423.72;;;3.16;80.42
80321;BME280;69633;47.066;15.450;2024-02-26T05:05:45;96428.53;;;3.14;80.91
80321;BME280;69633;47.066;15.450;2024-02-26T05:08:10;96422.19;;;3.15;81.34
80321;BME280;69633;47.066;15.450;2024-02-26T05:10:38;96428.97;;;3.16;81.14
80321;BME280;69633;47.066;15.450;2024-02-26T05:13:07;96432.22;;;3.22;80.81
80321;BME280;69633;47.066;15.450;2024-02-26T05:15:33;96424.19;;;3.27;80.95
80321;BME280;69633;47.066;15.450;2024-02-26T05:17:59;96427.91;;;3.26;80.72
80321;BME280;69633;47.066;15.450;2024-02-26T05:20:25;96428.38;;;3.28;80.88
80321;BME280;69633;47.066;15.450;2024-02-26T05:22:51;96418.03;;;3.31;80.13
80321;BME280;69633;47.066;15.450;2024-02-26T05:25:18;96434.38;;;3.28;79.95
80321;BME280;69633;47.066;15.450;2024-02-26T05:27:44;96428.66;;;3.26;80.39
80321;BME280;69633;47.066;15.450;2024-02-26T05:30:11;96428.34;;;3.19;80.22
80321;BME280;69633;47.066;15.450;2024-02-26T05:32:39;96417.09;;;3.19;80.61
80321;BME280;69633;47.066;15.450;2024-02-26T05:35:07;96422.03;;;3.20;80.83
80321;BME280;69633;47.066;15.450;2024-02-26T05:37:33;96411.72;;;3.24;80.65
80321;BME280;69633;47.066;15.450;2024-02-26T05:40:01;96410.78;;;3.28;79.85
80321;BME280;69633;47.066;15.450;2024-02-26T05:42:31;96411.41;;;3.25;80.47
80321;BME280;69633;47.066;15.450;2024-02-26T05:44:59;96405.53;;;3.28;80.45
80321;BME280;69633;47.066;15.450;2024-02-26T05:47:25;96418.97;;;3.35;80.29
80321;BME280;69633;47.066;15.450;2024-02-26T05:49:52;96423.59;;;3.47;79.99
80321;BME280;69633;47.066;15.450;2024-02-26T05:52:17;96413.25;;;3.33;79.25
80321;BME280;69633;47.066;15.450;2024-02-26T05:54:42;96421.28;;;3.28;79.55
80321;BME280;69633;47.066;15.450;2024-02-26T05:57:09;96424.38;;;3.22;79.60
80321;BME280;69633;47.066;15.450;2024-02-26T05:59:34;96424.97;;;3.19;79.73
80321;BME280;69633;47.066;15.450;2024-02-26T06:02:02;96426.06;;;3.18;80.16
80321;BME280;69633;47.066;15.450;2024-02-26T06:04:30;96436.38;;;3.14;80.15
80321;BME280;69633;47.066;15.450;2024-02-26T06:06:56;96435.78;;;3.17;80.57
80321;BME280;69633;47.066;15.450;2024-02-26T06:09:23;96440.69;;;3.19;80.18
80321;BME280;69633;47.066;15.450;2024-02-26T06:11:49;96437.91;;;3.24;80.71
80321;BME280;69633;47.066;15.450;2024-02-26T06:14:16;96433.16;;;3.26;80.41
80321;BME280;69633;47.066;15.450;2024-02-26T06:16:46;96441.31;;;3.24;80.55
80321;BME280;69633;47.066;15.450;2024-02-26T06:19:16;96452.28;;;3.18;80.52
80321;BME280;69633;47.066;15.450;2024-02-26T06:21:43;96459.81;;;3.19;80.86
80321;BME280;69633;47.066;15.450;2024-02-26T06:24:08;96453.34;;;3.25;80.66
80321;BME280;69633;47.066;15.450;2024-02-26T06:26:34;96454.59;;;3.28;80.48
80321;BME280;69633;47.066;15.450;2024-02-26T06:29:00;96463.53;;;3.35;80.38
80321;BME280;69633;47.066;15.450;2024-02-26T06:31:28;96466.47;;;3.42;80.15
80321;BME280;69633;47.066;15.450;2024-02-26T06:33:55;96459.06;;;3.53;80.17
80321;BME280;69633;47.066;15.450;2024-02-26T06:36:23;96467.06;;;3.65;80.30
80321;BME280;69633;47.066;15.450;2024-02-26T06:38:49;96474.03;;;3.70;79.98
80321;BME280;69633;47.066;15.450;2024-02-26T06:41:17;96470.31;;;3.71;79.89
80321;BME280;69633;47.066;15.450;2024-02-26T06:43:43;96483.56;;;3.83;79.77
80321;BME280;69633;47.066;15.450;2024-02-26T06:46:09;96486.81;;;3.97;79.56
80321;BME280;69633;47.066;15.450;2024-02-26T06:48:35;96485.41;;;4.08;78.87
80321;BME280;69633;47.066;15.450;2024-02-26T06:51:03;96485.56;;;4.12;78.60
80321;BME280;69633;47.066;15.450;2024-02-26T06:53:30;96485.22;;;4.13;78.58
80321;BME280;69633;47.066;15.450;2024-02-26T06:55:56;96482.88;;;4.20;78.45
80321;BME280;69633;47.066;15.450;2024-02-26T06:58:24;96494.59;;;4.31;78.22
80321;BME280;69633;47.066;15.450;2024-02-26T07:00:51;96493.03;;;4.39;77.68
80321;BME280;69633;47.066;15.450;2024-02-26T07:03:16;96495.19;;;4.46;77.45
80321;BME280;69633;47.066;15.450;2024-02-26T07:05:42;96483.97;;;4.66;77.22
80321;BME280;69633;47.066;15.450;2024-02-26T07:08:08;96479.00;;;4.73;76.45
80321;BME280;69633;47.066;15.450;2024-02-26T07:10:34;96491.22;;;4.69;76.21
80321;BME280;69633;47.066;15.450;2024-02-26T07:13:01;96489.22;;;4.66;76.73
80321;BME280;69633;47.066;15.450;2024-02-26T07:15:27;96496.81;;;4.67;77.33
80321;BME280;69633;47.066;15.450;2024-02-26T07:17:54;96492.78;;;4.70;77.06
80321;BME280;69633;47.066;15.450;2024-02-26T07:20:20;96498.13;;;4.82;76.51
80321;BME280;69633;47.066;15.450;2024-02-26T07:22:46;96499.75;;;4.95;76.71
80321;BME280;69633;47.066;15.450;2024-02-26T07:25:13;96500.22;;;4.97;76.22
80321;BME280;69633;47.066;15.450;2024-02-26T07:27:43;96494.97;;;4.97;76.56
80321;BME280;69633;47.066;15.450;2024-02-26T07:30:11;96493.69;;;5.03;76.46
80321;BME280;69633;47.066;15.450;2024-02-26T07:32:40;96493.59;;;5.20;75.76
80321;BME280;69633;47.066;15.450;2024-02-26T07:35:08;96483.41;;;5.40;75.21
80321;BME280;69633;47.066;15.450;2024-02-26T07:37:37;96487.47;;;5.58;74.84
80321;BME280;69633;47.066;15.450;2024-02-26T07:40:08;96496.28;;;5.74;74.19
80321;BME280;69633;47.066;15.450;2024-02-26T07:42:35;96491.03;;;5.95;73.55
80321;BME280;69633;47.066;15.450;2024-02-26T07:45:05;96495.28;;;5.87;72.98
80321;BME280;69633;47.066;15.450;2024-02-26T07:47:31;96495.28;;;5.87;73.55
80321;BME280;69633;47.066;15.450;2024-02-26T07:50:02;96492.63;;;6.08;73.19
80321;BME280;69633;47.066;15.450;2024-02-26T07:52:29;96496.72;;;6.17;72.94
80321;BME280;69633;47.066;15.450;2024-02-26T07:54:56;96493.44;;;6.20;72.62
80321;BME280;69633;47.066;15.450;2024-02-26T07:57:23;96503.59;;;6.43;71.46
80321;BME280;69633;47.066;15.450;2024-02-26T07:59:49;96498.78;;;6.69;70.89
80321;BME280;69633;47.066;15.450;2024-02-26T08:02:16;96499.34;;;6.87;69.98
80321;BME280;69633;47.066;15.450;2024-02-26T08:04:43;96498.47;;;7.07;69.40
80321;BME280;69633;47.066;15.450;2024-02-26T08:07:08;96510.13;;;7.18;69.40
80321;BME280;69633;47.066;15.450;2024-02-26T08:09:35;96513.28;;;7.36;68.51
80321;BME280;69633;47.066;15.450;2024-02-26T08:12:01;96512.19;;;7.37;68.74
80321;BME280;69633;47.066;15.450;2024-02-26T08:14:27;96507.31;;;7.39;68.35
80321;BME280;69633;47.066;15.450;2024-02-26T08:16:53;96511.81;;;7.50;67.98
80321;BME280;69633;47.066;15.450;2024-02-26T08:19:19;96500.94;;;7.40;67.82
80321;BME280;69633;47.066;15.450;2024-02-26T08:21:47;96504.66;;;7.63;66.63
80321;BME280;69633;47.066;15.450;2024-02-26T08:24:14;96507.66;;;7.89;66.05
80321;BME280;69633;47.066;15.450;2024-02-26T08:26:40;96513.19;;;8.12;65.18
80321;BME280;69633;47.066;15.450;2024-02-26T08:29:08;96512.34;;;8.36;64.35
80321;BME280;69633;47.066;15.450;2024-02-26T08:31:35;96512.50;;;8.43;64.09
80321;BME280;69633;47.066;15.450;2024-02-26T08:34:03;96515.56;;;8.45;63.41
80321;BME280;69633;47.066;15.450;2024-02-26T08:36:35;96511.75;;;8.58;63.53
80321;BME280;69633;47.066;15.450;2024-02-26T08:39:09;96502.22;;;8.69;63.06
80321;BME280;69633;47.066;15.450;2024-02-26T08:41:36;96514.38;;;8.73;62.72
80321;BME280;69633;47.066;15.450;2024-02-26T08:44:02;96514.31;;;8.86;62.50
80321;BME280;69633;47.066;15.450;2024-02-26T08:46:29;96507.47;;;9.00;61.80
80321;BME280;69633;47.066;15.450;2024-02-26T08:48:56;96509.47;;;9.03;61.97
80321;BME280;69633;47.066;15.450;2024-02-26T08:51:23;96516.47;;;8.96;61.15
80321;BME280;69633;47.066;15.450;2024-02-26T08:53:48;96509.94;;;9.09;60.68
80321;BME280;69633;47.066;15.450;2024-02-26T08:56:17;96516.00;;;9.09;60.74
80321;BME280;69633;47.066;15.450;2024-02-26T08:58:54;96521.91;;;9.03;61.18
80321;BME280;69633;47.066;15.450;2024-02-26T09:01:22;96520.78;;;9.19;61.29
80321;BME280;69633;47.066;15.450;2024-02-26T09:03:49;96518.88;;;9.36;60.61
80321;BME280;69633;47.066;15.450;2024-02-26T09:06:16;96528.78;;;9.39;60.62
80321;BME280;69633;47.066;15.450;2024-02-26T09:08:41;96529.22;;;9.60;60.25
80321;BME280;69633;47.066;15.450;2024-02-26T09:11:09;96520.63;;;9.82;59.59
80321;BME280;69633;47.066;15.450;2024-02-26T09:13:36;96509.03;;;9.90;59.36
80321;BME280;69633;47.066;15.450;2024-02-26T09:16:05;96512.22;;;10.15;58.13
80321;BME280;69633;47.066;15.450;2024-02-26T09:18:32;96495.25;;;10.00;57.81
80321;BME280;69633;47.066;15.450;2024-02-26T09:20:57;96499.19;;;10.10;57.97
80321;BME280;69633;47.066;15.450;2024-02-26T09:23:24;96508.75;;;9.95;57.63
80321;BME280;69633;47.066;15.450;2024-02-26T09:25:51;96500.63;;;10.04;57.77
80321;BME280;69633;47.066;15.450;2024-02-26T09:28:16;96498.88;;;10.31;nan
80321;BME280;69633;47.066;15.450;2024-02-26T09:30:46;96501.47;;;10.50;56.23
80321;BME280;69633;47.066;15.450;2024-02-26T09:33:13;96507.41;;;10.43;57.10
80321;BME280;69633;47.066;15.450;2024-02-26T09:35:41;96505.66;;;10.74;55.70
80321;BME280;69633;47.066;15.450;2024-02-26T09:38:07;96501.34;;;10.88;55.74
80321;BME280;69633;47.066;15.450;2024-02-26T09:40:37;96511.38;;;10.98;54.54
80321;BME280;69633;47.066;15.450;2024-02-26T09:43:05;96514.44;;;11.00;55.00
80321;BME280;69633;47.066;15.450;2024-02-26T09:45:34;96518.03;;;11.11;54.35
80321;BME280;69633;47.066;15.450;2024-02-26T09:48:04;96510.78;;;11.35;54.02
80321;BME280;69633;47.066;15.450;2024-02-26T09:50:31;96513.09;;;11.66;53.41
80321;BME280;69633;47.066;15.450;2024-02-26T09:52:58;96524.16;;;11.68;52.61
80321;BME280;69633;47.066;15.450;2024-02-26T09:55:28;96515.84;;;11.43;52.31
80321;BME280;69633;47.066;15.450;2024-02-26T09:57:54;96519.00;;;11.52;53.44
80321;BME280;69633;47.066;15.450;2024-02-26T10:00:22;96520.53;;;11.80;51.97
80321;BME280;69633;47.066;15.450;2024-02-26T10:02:52;96516.53;;;12.30;50.24
80321;BME280;69633;47.066;15.450;2024-02-26T10:05:29;96521.41;;;12.21;50.17
80321;BME280;69633;47.066;15.450;2024-02-26T10:07:57;96518.91;;;12.01;50.63
80321;BME280;69633;47.066;15.450;2024-02-26T10:10:24;96516.88;;;11.91;50.87
80321;BME280;69633;47.066;15.450;2024-02-26T10:12:50;96521.06;;;11.92;50.90
80321;BME280;69633;47.066;15.450;2024-02-26T10:15:20;96519.47;;;12.18;50.56
80321;BME280;69633;47.066;15.450;2024-02-26T10:17:51;96516.97;;;12.32;49.63
80321;BME280;69633;47.066;15.450;2024-02-26T10:20:18;96509.63;;;12.58;48.49
80321;BME280;69633;47.066;15.450;2024-02-26T10:22:47;96512.88;;;12.78;47.65
80321;BME280;69633;47.066;15.450;2024-02-26T10:25:13;96519.06;;;12.93;47.63
80321;BME280;69633;47.066;15.450;2024-02-26T10:27:43;96515.63;;;12.92;47.45
80321;BME280;69633;47.066;15.450;2024-02-26T10:30:36;96524.84;;;13.02;46.57
80321;BME280;69633;47.066;15.450;2024-02-26T10:33:01;96527.66;;;13.20;45.46
80321;BME280;69633;47.066;15.450;2024-02-26T10:35:30;96523.22;;;13.34;45.58
80321;BME280;69633;47.066;15.450;2024-02-26T10:37:59;96512.97;;;12.92;45.78
80321;BME280;69633;47.066;15.450;2024-02-26T10:40:24;96508.94;;;12.65;46.19
80321;BME280;69633;47.066;15.450;2024-02-26T10:42:52;96513.53;;;12.72;46.65
80321;BME280;69633;47.066;15.450;2024-02-26T10:45:20;96519.28;;;13.18;46.50
80321;BME280;69633;47.066;15.450;2024-02-26T10:47:47;96518.34;;;12.96;45.88
80321;BME280;69633;47.066;15.450;2024-02-26T10:50:14;96512.13;;;12.81;46.45
80321;BME280;69633;47.066;15.450;2024-02-26T10:52:45;96517.66;;;13.06;45.91
80321;BME280;69633;47.066;15.450;2024-02-26T10:55:16;96522.34;;;13.20;44.86
80321;BME280;69633;47.066;15.450;2024-02-26T10:57:47;96521.16;;;13.14;44.48
80321;BME280;69633;47.066;15.450;2024-02-26T11:00:18;96518.75;;;13.49;44.41
80321;BME280;69633;47.066;15.450;2024-02-26T11:02:46;96521.06;;;13.57;43.61
80321;BME280;69633;47.066;15.450;2024-02-26T11:05:14;96515.09;;;13.78;42.93
80321;BME280;69633;47.066;15.450;2024-02-26T11:07:42;96513.59;;;13.88;42.77
80321;BME280;69633;47.066;15.450;2024-02-26T11:10:11;96510.88;;;13.74;42.61
80321;BME280;69633;47.066;15.450;2024-02-26T11:12:44;96509.47;;;13.29;44.41
80321;BME280;69633;47.066;15.450;2024-02-26T11:15:21;96501.91;;;13.34;44.93
80321;BME280;69633;47.066;15.450;2024-02-26T11:17:52;96495.81;;;13.34;44.40
80321;BME280;69633;47.066;15.450;2024-02-26T11:20:19;96497.41;;;13.45;44.34
80321;BME280;69633;47.066;15.450;2024-02-26T11:22:46;96504.31;;;13.02;44.77
80321;BME280;69633;47.066;15.450;2024-02-26T11:25:11;96495.31;;;13.18;44.48
80321;BME280;69633;47.066;15.450;2024-02-26T11:28:00;96498.06;;;13.35;44.26
80321;BME280;69633;47.066;15.450;2024-02-26T11:30:31;96497.41;;;13.49;44.44
80321;BME280;69633;47.066;15.450;2024-02-26T11:32:59;96493.69;;;13.64;44.21
80321;BME280;69633;47.066;15.450;2024-02-26T11:35:26;96486.88;;;13.77;43.72
80321;BME280;69633;47.066;15.450;2024-02-26T11:37:54;96479.28;;;13.79;43.48
80321;BME280;69633;47.066;15.450;2024-02-26T11:40:22;96484.19;;;13.70;44.60
80321;BME280;69633;47.066;15.450;2024-02-26T11:42:51;96482.41;;;13.99;43.89
80321;BME280;69633;47.066;15.450;2024-02-26T11:48:29;96476.22;;;13.77;44.82
80321;BME280;69633;47.066;15.450;2024-02-26T11:50:57;96475.47;;;13.80;44.44
80321;BME280;69633;47.066;15.450;2024-02-26T11:53:46;96482.38;;;13.95;44.29
80321;BME280;69633;47.066;15.450;2024-02-26T11:56:24;96479.31;;;13.83;44.75
80321;BME280;69633;47.066;15.450;2024-02-26T11:59:09;96473.19;;;13.75;44.78
80321;BME280;69633;47.066;15.450;2024-02-26T12:01:55;96473.19;;;13.82;44.76
80321;BME280;69633;47.066;15.450;2024-02-26T12:04:26;96473.59;;;13.91;44.67
80321;BME280;69633;47.066;15.450;2024-02-26T12:07:01;96472.41;;;13.71;45.04
80321;BME280;69633;47.066;15.450;2024-02-26T12:09:51;96475.94;;;14.03;44.54
80321;BME280;69633;47.066;15.450;2024-02-26T12:12:18;96476.66;;;13.86;44.92
80321;BME280;69633;47.066;15.450;2024-02-26T12:17:41;96462.94;;;13.91;45.10
80321;BME280;69633;47.066;15.450;2024-02-26T12:20:10;96456.13;;;14.01;44.88
80321;BME280;69633;47.066;15.450;2024-02-26T12:22:39;96451.16;;;13.99;44.86
80321;BME280;69633;47.066;15.450;2024-02-26T12:25:10;96456.09;;;13.90;44.69
80321;BME280;69633;47.066;15.450;2024-02-26T12:27:37;96452.72;;;14.18;44.49
80321;BME280;69633;47.066;15.450;2024-02-26T12:30:06;96450.47;;;14.24;44.30
80321;BME280;69633;47.066;15.450;2024-02-26T12:32:32;96456.16;;;14.15;44.57
80321;BME280;69633;47.066;15.450;2024-02-26T12:35:01;96449.28;;;14.18;44.54
80321;BME280;69633;47.066;15.450;2024-02-26T12:37:28;96446.59;;;14.07;44.30
80321;BME280;69633;47.066;15.450;2024-02-26T12:39:56;96458.78;;;14.04;45.07
80321;BME280;69633;47.066;15.450;2024-02-26T12:42:22;96447.41;;;14.25;44.18
80321;BME280;69633;47.066;15.450;2024-02-26T12:44:53;96448.63;;;14.63;43.44
80321;BME280;69633;47.066;15.450;2024-02-26T12:47:20;96443.22;;;15.27;42.58
80321;BME280;69633;47.066;15.450;2024-02-26T12:49:47;96440.38;;;15.87;41.21
80321;BME280;69633;47.066;15.450;2024-02-26T12:52:17;96446.38;;;16.16;41.02
80321;BME280;69633;47.066;15.450;2024-02-26T12:54:44;96440.31;;;16.08;40.32
80321;BME280;69633;47.066;15.450;2024-02-26T12:57:12;96444.75;;;16.29;39.42
80321;BME280;69633;47.066;15.450;2024-02-26T12:59:38;96441.16;;;16.53;39.14
80321;BME280;69633;47.066;15.450;2024-02-26T13:02:07;96446.03;;;16.69;38.58
80321;BME280;69633;47.066;15.450;2024-02-26T13:04:33;96434.47;;;16.82;38.40
80321;BME280;69633;47.066;15.450;2024-02-26T13:07:03;96445.66;;;17.15;38.88